Time;durP1;ratioP1;P1;durP2;ratioP2;P2;SDS_P1;SDS_P2;PMS_P1;PMS_P2;Temp;Humidity;BMP_temperature;BMP_pressure;BME280_temperature;BME280_humidity;BME280_pressure;Samples;Min_cycle;Max_cycle;Signal;HPM_P1;HPM_P2
2022/05/17 00:01:18;;;;;;;0.10;0.10;;;;;;;19.72;64.09;99132.66;5032169;28;20029;-74
2022/05/17 00:03:44;;;;;;;0.10;0.10;;;;;;;19.74;63.31;99137.72;5032626;28;20026;-74
2022/05/17 00:06:10;;;;;;;0.10;0.10;;;;;;;19.73;62.96;99133.47;5041717;28;20486;-75
2022/05/17 00:08:35;;;;;;;0.00;0.00;;;;;;;19.75;62.79;99131.19;5051679;28;20029;-74
2022/05/17 00:11:01;;;;;;;0.00;0.00;;;;;;;19.76;62.65;99140.91;5032481;28;20033;-74
2022/05/17 00:13:26;;;;;;;0.10;0.10;;;;;;;19.74;62.36;99137.72;5039290;28;20033;-73
2022/05/17 00:15:52;;;;;;;0.10;0.10;;;;;;;19.70;62.32;99134.13;5052293;28;20614;-72
2022/05/17 00:18:19;;;;;;;0.10;0.10;;;;;;;19.68;62.40;99134.44;5051402;28;20029;-72
2022/05/17 00:20:45;;;;;;;0.10;0.10;;;;;;;19.64;62.43;99128.91;5051883;28;20029;-72
2022/05/17 00:23:12;;;;;;;0.10;0.10;;;;;;;19.62;62.38;99128.44;5051675;28;20543;-72
2022/05/17 00:25:38;;;;;;;0.10;0.10;;;;;;;19.63;62.41;99135.44;5051318;28;20037;-72
2022/05/17 00:28:04;;;;;;;0.10;0.10;;;;;;;19.66;62.38;99131.28;5051452;28;20029;-73
2022/05/17 00:30:29;;;;;;;0.10;0.10;;;;;;;19.59;62.19;99122.88;5052000;28;20036;-73
2022/05/17 00:32:55;;;;;;;0.10;0.10;;;;;;;19.57;61.80;99128.66;5051782;28;20032;-72
2022/05/17 00:35:20;;;;;;;0.10;0.10;;;;;;;19.46;61.70;99124.78;5052004;28;20489;-73
2022/05/17 00:37:46;;;;;;;0.00;0.00;;;;;;;19.38;62.05;99126.44;5051677;28;20339;-73
2022/05/17 00:40:13;;;;;;;0.00;0.00;;;;;;;19.27;62.57;99120.63;5051416;28;20416;-73
2022/05/17 00:42:38;;;;;;;0.00;0.00;;;;;;;19.24;62.71;99128.63;5051688;28;20053;-73
2022/05/17 00:45:05;;;;;;;0.00;0.00;;;;;;;19.19;62.86;99126.94;5051505;28;20029;-73
2022/05/17 00:47:35;;;;;;;0.00;0.00;;;;;;;19.17;63.00;99129.16;5051351;28;20087;-73
2022/05/17 00:50:22;;;;;;;0.00;0.00;;;;;;;19.09;63.13;99130.81;5031400;28;20026;-73
2022/05/17 00:52:58;;;;;;;0.10;0.10;;;;;;;19.07;63.52;99132.28;5031437;28;20511;-73
2022/05/17 00:55:46;;;;;;;0.00;0.00;;;;;;;19.01;63.58;99126.25;5031486;28;20473;-74
2022/05/17 00:58:26;;;;;;;0.08;0.08;;;;;;;19.02;63.56;99130.56;5033530;28;20068;-74
2022/05/17 01:01:03;;;;;;;0.00;0.00;;;;;;;19.01;63.35;99123.56;5050852;28;20029;-73
2022/05/17 01:04:00;;;;;;;0.10;0.10;;;;;;;18.99;63.26;99132.03;5040665;28;20459;-74
2022/05/17 01:06:35;;;;;;;0.25;0.25;;;;;;;19.01;63.02;99123.56;5028035;28;20059;-74
2022/05/17 01:09:01;;;;;;;0.03;0.03;;;;;;;18.96;62.83;99121.81;5051078;28;20393;-75
2022/05/17 01:11:26;;;;;;;0.00;0.00;;;;;;;18.93;62.91;99114.38;5051044;28;20055;-74
2022/05/17 01:16:36;;;;;;;0.10;0.10;;;;;;;18.93;62.38;99114.38;5051262;28;20035;-73
2022/05/17 01:19:04;;;;;;;0.10;0.10;;;;;;;18.92;62.37;99122.81;5046429;28;20021;-74
2022/05/17 01:21:31;;;;;;;0.00;0.00;;;;;;;18.86;62.48;99111.38;5030822;28;20034;-75
2022/05/17 01:23:56;;;;;;;0.00;0.00;;;;;;;18.83;62.72;99110.06;5031224;28;20029;-75
2022/05/17 01:26:26;;;;;;;0.10;0.10;;;;;;;18.83;62.60;99109.28;5046972;28;20048;-75
2022/05/17 01:28:52;;;;;;;0.10;0.10;;;;;;;18.81;62.56;99109.63;5051073;28;20025;-74
2022/05/17 01:31:19;;;;;;;0.10;0.10;;;;;;;18.86;62.15;99109.44;5050702;28;20461;-75
2022/05/17 01:33:45;;;;;;;0.00;0.00;;;;;;;18.98;61.61;99113.34;5051049;28;20056;-74
2022/05/17 01:36:12;;;;;;;0.00;0.00;;;;;;;18.93;61.58;99108.94;5050515;28;20056;-74
2022/05/17 01:38:38;;;;;;;0.10;0.10;;;;;;;18.91;61.38;99111.19;5049663;28;20032;-74
2022/05/17 01:41:04;;;;;;;0.00;0.00;;;;;;;18.85;61.47;99107.06;5050564;28;20051;-76
2022/05/17 01:43:30;;;;;;;0.10;0.10;;;;;;;18.75;61.78;99110.16;5031821;28;20541;-75
2022/05/17 01:45:55;;;;;;;0.10;0.10;;;;;;;18.71;62.06;99113.53;5029730;28;20021;-75
2022/05/17 01:48:21;;;;;;;0.00;0.00;;;;;;;18.65;62.33;99108.63;5030882;28;20036;-73
2022/05/17 01:50:46;;;;;;;0.00;0.00;;;;;;;18.64;62.12;99099.72;5030945;28;20038;-74
2022/05/17 01:53:12;;;;;;;0.10;0.10;;;;;;;18.61;61.93;99108.47;5030736;28;20505;-74
2022/05/17 01:55:38;;;;;;;0.00;0.00;;;;;;;18.59;61.92;99102.63;5041421;28;20033;-73
2022/05/17 01:58:04;;;;;;;0.10;0.10;;;;;;;18.71;62.21;99108.09;5035972;28;20033;-75
2022/05/17 02:00:30;;;;;;;0.10;0.10;;;;;;;18.51;62.64;99111.56;5030640;28;20040;-74
2022/05/17 02:02:56;;;;;;;0.08;0.08;;;;;;;18.53;62.67;99112.06;5030726;28;20026;-75
2022/05/17 02:05:23;;;;;;;0.00;0.00;;;;;;;18.49;62.60;99111.91;5034999;28;20082;-75
2022/05/17 02:07:50;;;;;;;0.10;0.10;;;;;;;18.48;62.84;99110.31;5050401;28;20032;-74
2022/05/17 02:10:17;;;;;;;0.10;0.10;;;;;;;18.44;62.93;99103.94;5050158;28;20495;-76
2022/05/17 02:12:42;;;;;;;0.00;0.00;;;;;;;18.36;62.96;99107.53;5048952;28;20029;-74
2022/05/17 02:15:08;;;;;;;0.10;0.10;;;;;;;18.32;63.16;99111.97;5030930;28;20025;-73
2022/05/17 02:17:35;;;;;;;0.00;0.00;;;;;;;18.28;62.87;99106.44;5030232;28;20029;-73
2022/05/17 02:20:08;;;;;;;0.05;0.05;;;;;;;18.22;63.03;99103.13;5045617;28;20527;-73
2022/05/17 02:22:34;;;;;;;0.10;0.10;;;;;;;18.17;62.94;99105.22;5048983;28;20124;-74
2022/05/17 02:25:00;;;;;;;0.00;0.00;;;;;;;18.13;63.11;99101.56;5050578;28;20472;-74
2022/05/17 02:27:25;;;;;;;0.00;0.00;;;;;;;18.06;63.21;99102.06;5065705;28;20396;-73
2022/05/17 02:29:51;;;;;;;0.10;0.10;;;;;;;18.07;63.30;99101.72;5049524;28;20495;-74
2022/05/17 02:32:16;;;;;;;0.00;0.00;;;;;;;18.08;63.15;99094.44;5049935;28;20602;-73
2022/05/17 02:34:42;;;;;;;0.00;0.00;;;;;;;18.10;63.23;99100.28;5050486;28;20025;-73
2022/05/17 02:37:08;;;;;;;0.00;0.00;;;;;;;18.06;63.20;99099.34;5050511;28;20475;-74
2022/05/17 02:39:34;;;;;;;0.00;0.00;;;;;;;18.05;63.23;99095.06;5049573;28;20025;-74
2022/05/17 02:42:00;;;;;;;0.10;0.10;;;;;;;18.03;63.23;99092.69;5050301;28;20106;-74
2022/05/17 02:44:25;;;;;;;0.10;0.10;;;;;;;18.04;63.13;99094.28;5049928;28;20507;-73
2022/05/17 02:46:50;;;;;;;0.00;0.00;;;;;;;17.99;63.24;99093.66;5049921;28;20036;-73
2022/05/17 02:49:16;;;;;;;0.03;0.03;;;;;;;17.99;63.43;99097.19;5048792;28;20124;-73
2022/05/17 02:51:42;;;;;;;0.00;0.00;;;;;;;18.00;63.42;99092.53;5040386;28;20473;-73
2022/05/17 02:54:10;;;;;;;0.08;0.08;;;;;;;18.05;63.29;99100.47;5046433;28;20079;-73
2022/05/17 02:56:36;;;;;;;0.00;0.00;;;;;;;18.03;63.34;99098.09;5053650;28;20484;-73
2022/05/17 02:59:03;;;;;;;0.10;0.10;;;;;;;17.92;63.73;99092.22;5053794;28;20449;-73
2022/05/17 03:01:28;;;;;;;0.10;0.10;;;;;;;17.93;63.37;99104.63;5053493;28;20025;-74
2022/05/17 03:03:54;;;;;;;0.00;0.00;;;;;;;17.97;63.30;99098.59;5052389;28;20405;-74
2022/05/17 03:06:19;;;;;;;0.10;0.10;;;;;;;18.01;63.11;99103.03;5048694;28;20041;-74
2022/05/17 03:08:45;;;;;;;0.10;0.10;;;;;;;18.03;63.15;99108.16;5033660;28;20028;-74
2022/05/17 03:11:10;;;;;;;0.00;0.00;;;;;;;17.98;63.29;99102.88;5039986;28;20035;-74
2022/05/17 03:13:36;;;;;;;0.05;0.05;;;;;;;18.04;63.23;99112.41;5053152;28;20055;-74
2022/05/17 03:16:03;;;;;;;0.00;0.00;;;;;;;18.12;63.23;99113.53;5053441;28;20029;-73
2022/05/17 03:18:28;;;;;;;0.00;0.00;;;;;;;18.25;62.93;99112.50;5051927;28;20036;-73
2022/05/17 03:20:54;;;;;;;0.00;0.00;;;;;;;18.35;62.66;99101.28;5052958;28;20029;-74
2022/05/17 03:23:19;;;;;;;0.10;0.10;;;;;;;18.59;62.21;99108.03;5053057;28;20024;-75
2022/05/17 03:25:45;;;;;;;0.10;0.10;;;;;;;18.83;60.94;99112.00;5053266;28;20029;-75
2022/05/17 03:28:12;;;;;;;0.10;0.10;;;;;;;19.12;60.55;99118.53;5053125;28;20021;-75
2022/05/17 03:30:39;;;;;;;0.10;0.10;;;;;;;19.40;59.60;99117.97;5052382;28;20025;-75
2022/05/17 03:33:05;;;;;;;0.00;0.00;;;;;;;19.72;58.77;99112.88;5053150;28;20021;-76
2022/05/17 03:35:30;;;;;;;0.08;0.08;;;;;;;19.98;57.69;99112.59;5052630;28;20044;-75
2022/05/17 03:37:56;;;;;;;0.20;0.20;;;;;;;20.38;56.62;99116.59;5053018;28;20101;-74
2022/05/17 03:40:21;;;;;;;0.00;0.00;;;;;;;20.76;55.25;99115.44;5035858;28;20107;-75
2022/05/17 03:42:47;;;;;;;0.00;0.00;;;;;;;21.18;54.12;99122.47;5033084;28;20496;-77
2022/05/17 03:45:13;;;;;;;0.10;0.10;;;;;;;21.43;52.76;99117.72;5048287;28;20025;-76
2022/05/17 03:47:39;;;;;;;0.00;0.00;;;;;;;21.52;52.42;99123.00;5032703;28;20036;-74
2022/05/17 03:50:06;;;;;;;0.10;0.10;;;;;;;21.80;51.64;99122.22;5039214;28;20025;-74
2022/05/17 03:52:31;;;;;;;0.00;0.00;;;;;;;22.04;51.32;99124.00;5050394;28;20029;-74
2022/05/17 03:54:58;;;;;;;0.00;0.00;;;;;;;22.36;50.76;99122.06;5046720;28;20402;-74
2022/05/17 03:57:25;;;;;;;0.00;0.00;;;;;;;22.78;49.85;99130.81;5032425;28;20034;-76
2022/05/17 03:59:51;;;;;;;0.10;0.10;;;;;;;23.18;48.69;99127.00;5051707;28;20069;-75
2022/05/17 04:02:17;;;;;;;0.15;0.15;;;;;;;23.60;47.95;99130.91;5050096;28;20071;-76
2022/05/17 04:04:43;;;;;;;0.00;0.00;;;;;;;24.11;46.65;99140.81;5046927;28;20025;-75
2022/05/17 04:07:08;;;;;;;0.00;0.00;;;;;;;24.59;45.90;99135.69;5032626;28;20170;-76
2022/05/17 04:09:34;;;;;;;0.00;0.00;;;;;;;25.03;44.77;99137.09;5041462;28;20025;-75
2022/05/17 04:12:00;;;;;;;0.03;0.03;;;;;;;25.45;43.62;99142.69;5052131;28;20118;-74
2022/05/17 04:14:25;;;;;;;0.10;0.10;;;;;;;25.81;42.44;99132.91;5051376;28;20080;-74
2022/05/17 04:16:51;;;;;;;0.08;0.08;;;;;;;26.21;41.48;99142.28;5052302;28;20028;-75
2022/05/17 04:19:16;;;;;;;0.00;0.00;;;;;;;26.55;40.88;99137.81;5051961;28;20120;-76
2022/05/17 04:21:43;;;;;;;0.00;0.00;;;;;;;26.92;39.77;99137.66;5052271;28;20443;-77
2022/05/17 04:24:09;;;;;;;0.00;0.00;;;;;;;27.28;39.03;99145.25;5052306;28;20522;-79
2022/05/17 04:26:35;;;;;;;0.00;0.00;;;;;;;27.57;38.42;99137.91;5051872;28;20042;-79
2022/05/17 04:29:01;;;;;;;0.00;0.00;;;;;;;27.90;37.90;99137.97;5050964;28;20389;-76
2022/05/17 04:31:27;;;;;;;0.00;0.00;;;;;;;28.20;37.20;99143.13;5051502;28;20040;-74
2022/05/17 04:33:52;;;;;;;0.00;0.00;;;;;;;28.50;36.81;99152.91;5066780;28;20024;-77
2022/05/17 04:36:18;;;;;;;0.00;0.00;;;;;;;28.76;36.17;99148.19;5049888;28;20036;-75
2022/05/17 04:38:43;;;;;;;0.00;0.00;;;;;;;29.01;35.68;99137.09;5051404;28;20520;-74
2022/05/17 04:41:09;;;;;;;0.00;0.00;;;;;;;29.32;35.17;99139.34;5051336;28;20040;-74
2022/05/17 04:43:35;;;;;;;0.00;0.00;;;;;;;29.61;34.67;99133.69;5050125;28;20032;-74
2022/05/17 04:46:00;;;;;;;0.10;0.10;;;;;;;29.79;34.31;99130.81;5051495;28;20048;-74
2022/05/17 04:48:26;;;;;;;0.00;0.00;;;;;;;30.06;33.96;99133.00;5051056;28;20024;-74
2022/05/17 04:50:52;;;;;;;0.00;0.00;;;;;;;30.28;34.11;99131.63;5051372;28;20057;-74
2022/05/17 04:53:18;;;;;;;0.00;0.00;;;;;;;30.55;33.20;99124.69;5051530;28;20056;-75
2022/05/17 04:55:44;;;;;;;0.00;0.00;;;;;;;30.75;33.22;99128.44;5051326;28;20061;-75
2022/05/17 04:58:10;;;;;;;0.00;0.00;;;;;;;31.00;32.90;99137.63;5051453;28;20052;-75
2022/05/17 05:00:36;;;;;;;0.00;0.00;;;;;;;31.19;32.77;99134.25;5051266;28;20025;-75
2022/05/17 05:03:02;;;;;;;0.00;0.00;;;;;;;31.46;32.24;99128.75;5050108;28;20025;-75
2022/05/17 05:05:27;;;;;;;0.00;0.00;;;;;;;31.69;31.43;99134.75;5051175;28;20060;-74
2022/05/17 05:07:53;;;;;;;0.17;0.17;;;;;;;31.74;31.55;99137.06;5050080;28;20027;-75
2022/05/17 05:10:19;;;;;;;0.00;0.00;;;;;;;31.88;31.61;99134.06;5051251;28;20036;-75
2022/05/17 05:12:45;;;;;;;0.00;0.00;;;;;;;32.00;31.49;99129.16;5050917;28;20116;-75
2022/05/17 05:15:11;;;;;;;0.00;0.00;;;;;;;32.15;31.36;99132.47;5051084;28;20456;-75
2022/05/17 05:17:38;;;;;;;0.00;0.00;;;;;;;32.28;30.91;99130.69;5050974;28;20025;-75
2022/05/17 05:20:06;;;;;;;0.00;0.00;;;;;;;32.35;30.81;99130.56;5051168;28;20469;-75
2022/05/17 05:22:33;;;;;;;0.00;0.00;;;;;;;32.38;30.92;99129.69;5051113;28;20029;-75
2022/05/17 05:24:58;;;;;;;0.05;0.05;;;;;;;32.40;30.96;99127.28;5051148;28;20029;-75
2022/05/17 05:27:24;;;;;;;0.00;0.00;;;;;;;32.51;30.62;99120.81;5050508;28;20028;-75
2022/05/17 05:29:49;;;;;;;0.00;0.00;;;;;;;32.54;30.63;99137.34;5050478;28;20021;-75
2022/05/17 05:32:15;;;;;;;0.00;0.00;;;;;;;32.57;30.27;99122.63;5051039;28;20108;-75
2022/05/17 05:34:40;;;;;;;0.00;0.00;;;;;;;32.67;30.46;99123.63;5049467;28;20089;-74
2022/05/17 05:37:06;;;;;;;0.75;0.32;;;;;;;32.83;30.44;99130.50;5050917;28;20031;-75
2022/05/17 05:39:32;;;;;;;0.17;0.17;;;;;;;32.96;30.31;99122.31;5050297;28;20036;-75
2022/05/17 05:41:58;;;;;;;0.00;0.00;;;;;;;33.14;29.73;99128.28;5050815;28;20051;-74
2022/05/17 05:44:23;;;;;;;0.00;0.00;;;;;;;33.23;29.85;99119.38;5050900;28;20021;-75
2022/05/17 05:46:49;;;;;;;0.22;0.22;;;;;;;33.42;29.91;99128.09;5049488;28;20029;-75
2022/05/17 05:49:14;;;;;;;0.10;0.10;;;;;;;33.54;29.18;99129.44;5051137;28;20052;-75
2022/05/17 05:51:40;;;;;;;0.13;0.13;;;;;;;33.64;29.65;99122.84;5050577;28;20465;-75
2022/05/17 05:54:09;;;;;;;0.03;0.03;;;;;;;33.80;29.82;99135.94;5050858;28;20021;-75
2022/05/17 05:56:34;;;;;;;0.08;0.08;;;;;;;33.86;29.30;99137.00;5050616;28;20021;-74
2022/05/17 05:59:00;;;;;;;0.08;0.08;;;;;;;33.82;29.32;99133.53;5050763;28;20025;-75
2022/05/17 06:01:26;;;;;;;0.00;0.00;;;;;;;33.79;29.68;99135.16;5050439;28;20029;-76
2022/05/17 06:03:52;;;;;;;0.08;0.08;;;;;;;33.87;29.97;99129.47;5050806;28;20468;-75
2022/05/17 06:06:17;;;;;;;0.00;0.00;;;;;;;33.98;29.31;99136.34;5050950;28;20048;-75
2022/05/17 06:08:43;;;;;;;0.43;0.10;;;;;;;33.93;29.66;99131.28;5050485;28;20396;-75
2022/05/17 06:11:09;;;;;;;0.00;0.00;;;;;;;34.07;29.07;99134.91;5050615;28;20025;-75
2022/05/17 06:13:36;;;;;;;0.00;0.00;;;;;;;33.87;30.03;99135.03;5048753;28;20033;-75
2022/05/17 06:16:01;;;;;;;0.00;0.00;;;;;;;33.95;29.88;99128.09;5050588;28;20296;-74
2022/05/17 06:18:27;;;;;;;0.00;0.00;;;;;;;34.08;29.38;99125.38;5050186;28;20061;-74
2022/05/17 06:20:55;;;;;;;0.10;0.10;;;;;;;34.10;29.63;99129.28;5050585;28;20017;-74
2022/05/17 06:23:21;;;;;;;0.00;0.00;;;;;;;34.15;29.14;99126.00;5050811;28;20507;-74
2022/05/17 06:25:47;;;;;;;0.00;0.00;;;;;;;34.12;28.81;99126.09;5051683;28;20040;-75
2022/05/17 06:28:13;;;;;;;0.00;0.00;;;;;;;33.84;29.15;99133.91;5054620;28;20041;-74
2022/05/17 06:30:41;;;;;;;0.00;0.00;;;;;;;33.63;29.49;99140.69;5052573;28;20495;-74
2022/05/17 06:33:08;;;;;;;0.00;0.00;;;;;;;33.48;29.28;99138.25;5054201;28;20496;-75
2022/05/17 06:35:34;;;;;;;0.03;0.03;;;;;;;33.18;29.00;99130.97;5053917;28;20060;-75
2022/05/17 06:37:59;;;;;;;0.00;0.00;;;;;;;32.89;30.06;99128.78;5053893;28;20109;-75
2022/05/17 06:40:25;;;;;;;0.10;0.10;;;;;;;32.71;30.23;99129.09;5054121;28;20431;-75
2022/05/17 06:42:50;;;;;;;0.00;0.00;;;;;;;32.50;30.76;99122.78;5053935;28;20049;-75
2022/05/17 06:45:15;;;;;;;0.00;0.00;;;;;;;32.29;30.59;99120.38;5053989;28;20021;-75
2022/05/17 06:47:41;;;;;;;0.00;0.00;;;;;;;32.10;30.67;99130.94;5054039;28;20036;-75
2022/05/17 06:50:07;;;;;;;0.03;0.03;;;;;;;31.82;30.89;99121.16;5054021;28;20452;-77
2022/05/17 06:52:33;;;;;;;0.00;0.00;;;;;;;31.71;30.94;99119.34;5053873;28;20052;-77
2022/05/17 06:54:58;;;;;;;0.00;0.00;;;;;;;31.51;31.56;99121.19;5053900;28;20476;-74
2022/05/17 06:57:23;;;;;;;0.00;0.00;;;;;;;31.33;31.60;99124.22;5053629;28;20029;-76
2022/05/17 06:59:49;;;;;;;0.20;0.20;;;;;;;31.12;31.55;99131.56;5053503;28;20161;-74
2022/05/17 07:02:15;;;;;;;0.10;0.10;;;;;;;30.84;31.79;99119.66;5053461;28;20025;-76
2022/05/17 07:04:40;;;;;;;0.00;0.00;;;;;;;30.66;32.69;99120.63;5052102;28;20029;-77
2022/05/17 07:07:07;;;;;;;0.00;0.00;;;;;;;30.54;33.72;99115.66;5053708;28;20056;-77
2022/05/17 07:09:33;;;;;;;0.10;0.10;;;;;;;30.39;33.39;99112.19;5053379;28;20469;-76
2022/05/17 07:14:43;;;;;;;0.00;0.00;;;;;;;30.39;33.66;99103.94;5052910;28;20036;-77
2022/05/17 07:17:16;;;;;;;0.10;0.10;;;;;;;30.44;33.84;99111.75;5053422;28;20397;-77
2022/05/17 07:19:43;;;;;;;0.00;0.00;;;;;;;30.38;33.39;99113.41;5053245;28;20029;-77
2022/05/17 07:22:10;;;;;;;0.00;0.00;;;;;;;30.29;34.12;99116.63;5053351;28;20029;-77
2022/05/17 07:24:36;;;;;;;0.00;0.00;;;;;;;30.25;34.10;99107.63;5053099;28;20040;-76
2022/05/17 07:27:03;;;;;;;0.00;0.00;;;;;;;30.21;34.47;99106.09;5053186;28;20053;-74
2022/05/17 07:29:29;;;;;;;0.00;0.00;;;;;;;30.14;34.49;99110.47;5053472;28;20025;-77
2022/05/17 07:31:55;;;;;;;0.00;0.00;;;;;;;29.94;34.42;99107.47;5052718;28;20032;-74
2022/05/17 07:34:21;;;;;;;0.00;0.00;;;;;;;29.82;34.00;99103.22;5053390;28;20029;-77
2022/05/17 07:36:47;;;;;;;0.00;0.00;;;;;;;29.68;34.66;99100.56;5052750;28;20116;-74
2022/05/17 07:39:13;;;;;;;0.10;0.10;;;;;;;29.50;35.21;99097.94;5052941;28;20103;-75
2022/05/17 07:41:40;;;;;;;0.20;0.20;;;;;;;29.41;35.55;99100.34;5052792;28;20529;-76
2022/05/17 07:44:05;;;;;;;0.00;0.00;;;;;;;29.43;35.30;99097.97;5053323;28;20045;-76
2022/05/17 07:46:31;;;;;;;0.00;0.00;;;;;;;29.42;35.31;99097.19;5052430;28;20064;-76
2022/05/17 07:48:57;;;;;;;0.08;0.08;;;;;;;29.39;35.21;99096.03;5052883;28;20439;-77
2022/05/17 07:51:23;;;;;;;0.00;0.00;;;;;;;29.35;35.82;99105.50;5052622;28;20157;-76
2022/05/17 07:53:48;;;;;;;0.15;0.15;;;;;;;29.43;35.36;99109.00;5052600;28;20645;-77
2022/05/17 07:56:14;;;;;;;0.15;0.15;;;;;;;29.42;35.79;99102.72;5052730;28;20033;-76
2022/05/17 07:58:40;;;;;;;0.00;0.00;;;;;;;29.45;35.70;99106.63;5052504;28;20029;-77
2022/05/17 08:01:05;;;;;;;0.00;0.00;;;;;;;29.49;36.04;99096.34;5053104;28;20154;-77
2022/05/17 08:03:31;;;;;;;0.00;0.00;;;;;;;29.47;35.86;99094.00;5052349;28;20021;-77
2022/05/17 08:05:57;;;;;;;0.35;0.35;;;;;;;29.43;36.76;99086.97;5052573;28;20036;-76
2022/05/17 08:08:22;;;;;;;0.00;0.00;;;;;;;29.39;36.41;99090.53;5052783;28;20029;-77
2022/05/17 08:10:48;;;;;;;0.30;0.30;;;;;;;29.36;36.23;99090.56;5050538;28;20060;-77
2022/05/17 08:13:15;;;;;;;0.10;0.10;;;;;;;29.40;35.71;99091.31;5052662;28;20020;-77
2022/05/17 08:15:40;;;;;;;0.15;0.15;;;;;;;29.37;35.20;99092.13;5052176;28;20029;-77
2022/05/17 08:18:06;;;;;;;0.52;0.52;;;;;;;29.09;35.51;99082.78;5052263;28;20032;-77
2022/05/17 08:20:33;;;;;;;0.00;0.00;;;;;;;28.96;36.94;99082.44;5052782;28;20060;-74
2022/05/17 08:22:59;;;;;;;0.00;0.00;;;;;;;28.86;37.21;99080.53;5052179;28;20053;-77
2022/05/17 08:28:09;;;;;;;0.82;0.82;;;;;;;28.64;37.23;99083.34;5052026;28;20031;-77
2022/05/17 08:30:35;;;;;;;0.57;0.28;;;;;;;28.58;37.55;99071.94;5051612;28;20424;-77
2022/05/17 08:33:17;;;;;;;0.10;0.10;;;;;;;28.61;38.88;99078.63;5051998;28;20021;-77
2022/05/17 08:35:52;;;;;;;0.32;0.30;;;;;;;28.65;38.67;99073.91;5051845;28;20032;-77
2022/05/17 08:38:30;;;;;;;0.00;0.00;;;;;;;28.73;38.63;99069.19;5052150;28;20514;-77
2022/05/17 08:41:23;;;;;;;0.10;0.10;;;;;;;28.85;38.82;99079.75;5051594;28;20024;-76
2022/05/17 08:44:01;;;;;;;0.00;0.00;;;;;;;28.95;38.03;99069.88;5051393;28;20175;-76
2022/05/17 08:46:51;;;;;;;0.10;0.10;;;;;;;29.02;37.18;99064.34;5051689;28;20044;-76
2022/05/17 08:49:31;;;;;;;0.00;0.00;;;;;;;29.08;37.68;99065.47;5051278;28;20029;-76
2022/05/17 08:52:19;;;;;;;0.22;0.22;;;;;;;29.15;37.87;99064.66;5051365;28;20062;-76
2022/05/17 08:54:50;;;;;;;0.10;0.10;;;;;;;29.23;37.61;99062.66;5051449;28;20039;-76
2022/05/17 08:58:00;;;;;;;0.00;0.00;;;;;;;29.33;38.11;99055.53;5051576;28;20040;-75
2022/05/17 09:00:44;;;;;;;0.00;0.00;;;;;;;29.21;36.61;99048.50;4989960;28;20066;-76
2022/05/17 09:03:34;;;;;;;0.10;0.10;;;;;;;29.06;36.64;99047.78;4989935;28;20104;-76
2022/05/17 09:05:59;;;;;;;0.00;0.00;;;;;;;29.01;36.76;99051.75;5035622;28;20488;-75
2022/05/17 09:08:31;;;;;;;0.00;0.00;;;;;;;28.94;37.06;99051.00;5050112;28;20043;-76
2022/05/17 09:11:06;;;;;;;0.00;0.00;;;;;;;29.00;37.77;99047.44;5051040;28;20064;-76
2022/05/17 09:14:02;;;;;;;0.47;0.32;;;;;;;28.97;36.99;99039.97;5051300;28;20025;-75
2022/05/17 09:16:33;;;;;;;0.32;0.30;;;;;;;29.01;37.33;99042.72;5050003;28;20029;-76
2022/05/17 09:18:59;;;;;;;0.20;0.20;;;;;;;29.06;35.91;99036.78;5050931;28;20025;-76
2022/05/17 09:21:38;;;;;;;0.00;0.00;;;;;;;29.08;36.35;99028.91;5051220;28;20036;-76
2022/05/17 09:24:16;;;;;;;0.65;0.52;;;;;;;29.18;36.16;99036.31;5051431;28;20025;-76
2022/05/17 09:26:51;;;;;;;0.10;0.10;;;;;;;29.28;35.79;99036.66;5051192;28;20029;-76
2022/05/17 09:29:20;;;;;;;0.00;0.00;;;;;;;29.32;35.53;99023.66;5051376;28;20112;-76
2022/05/17 09:32:01;;;;;;;0.20;0.20;;;;;;;29.38;35.90;99024.81;5050687;28;20095;-76
2022/05/17 09:34:35;;;;;;;0.20;0.20;;;;;;;29.43;35.65;99016.13;5050825;28;20082;-76
2022/05/17 09:37:17;;;;;;;0.00;0.00;;;;;;;29.52;35.72;99016.44;5050723;28;20025;-76
2022/05/17 09:39:51;;;;;;;0.00;0.00;;;;;;;29.64;34.39;99015.16;5050388;28;20037;-76
2022/05/17 09:42:43;;;;;;;0.00;0.00;;;;;;;29.73;34.73;99022.97;5051007;28;20063;-76
2022/05/17 09:45:15;;;;;;;0.90;0.70;;;;;;;29.80;35.10;99009.13;5050668;28;20454;-77
2022/05/17 09:47:54;;;;;;;0.00;0.00;;;;;;;29.85;34.90;99014.19;5050509;28;20052;-73
2022/05/17 09:53:14;;;;;;;0.00;0.00;;;;;;;29.79;34.79;99009.53;5050668;28;20040;-76
2022/05/17 09:55:46;;;;;;;0.05;0.05;;;;;;;29.77;33.56;99004.44;5050901;28;20032;-76
2022/05/17 09:58:28;;;;;;;0.00;0.00;;;;;;;29.76;34.08;98999.31;5050471;28;20473;-76
2022/05/17 10:00:54;;;;;;;0.08;0.08;;;;;;;29.79;33.16;99001.28;5052376;28;20025;-76
2022/05/17 10:03:36;;;;;;;0.20;0.20;;;;;;;29.81;33.92;98993.34;5054809;28;20029;-76
2022/05/17 10:06:16;;;;;;;0.13;0.13;;;;;;;29.86;32.84;98990.19;5054666;28;20025;-76
2022/05/17 10:09:02;;;;;;;0.20;0.20;;;;;;;29.89;32.23;98986.59;5054828;28;20029;-76
2022/05/17 10:11:40;;;;;;;0.00;0.00;;;;;;;29.94;31.38;98983.41;5054242;28;20500;-76
2022/05/17 10:14:15;;;;;;;0.00;0.00;;;;;;;29.97;31.42;98979.09;5054438;28;20078;-76
2022/05/17 10:16:41;;;;;;;0.00;0.00;;;;;;;30.09;31.31;98980.50;5054471;28;20025;-76
2022/05/17 10:19:10;;;;;;;0.00;0.00;;;;;;;30.04;30.88;98973.47;5054318;28;20531;-76
2022/05/17 10:21:46;;;;;;;0.00;0.00;;;;;;;30.02;30.56;98973.13;5054771;28;20472;-76
2022/05/17 10:24:23;;;;;;;0.00;0.00;;;;;;;30.07;30.57;98971.91;5054510;28;20035;-76
2022/05/17 10:27:10;;;;;;;;;;;;;;;30.05;30.27;98966.00;5054884;28;20044;-76
2022/05/17 10:29:46;;;;;;;0.00;0.00;;;;;;;30.01;31.02;98969.56;5054050;28;20284;-76
2022/05/17 10:32:19;;;;;;;0.00;0.00;;;;;;;30.04;31.90;98973.47;5054091;28;20056;-76
2022/05/17 10:34:52;;;;;;;0.00;0.00;;;;;;;30.01;30.17;98960.53;5054069;28;20032;-76
2022/05/17 10:37:22;;;;;;;0.43;0.10;;;;;;;30.02;29.11;98962.84;5052963;28;20033;-76
2022/05/17 10:39:56;;;;;;;0.00;0.00;;;;;;;29.92;28.47;98954.69;5054004;28;20126;-76
2022/05/17 10:42:24;;;;;;;0.22;0.22;;;;;;;29.86;28.30;98948.84;5054193;28;20096;-76
2022/05/17 10:44:53;;;;;;;0.00;0.00;;;;;;;29.79;28.54;98951.66;5053835;28;20056;-76
2022/05/17 10:47:21;;;;;;;0.55;0.35;;;;;;;29.81;30.11;98954.78;5054068;28;20053;-75
2022/05/17 10:50:04;;;;;;;0.00;0.00;;;;;;;29.71;30.26;98950.94;5052418;28;20109;-75
2022/05/17 10:52:32;;;;;;;0.20;0.20;;;;;;;29.68;31.03;98951.75;5053692;28;20025;-76
2022/05/17 10:55:22;;;;;;;0.10;0.10;;;;;;;29.58;30.85;98958.13;5053730;28;20044;-76
2022/05/17 10:57:57;;;;;;;0.10;0.10;;;;;;;29.45;29.79;98950.38;5053597;28;20112;-75
2022/05/17 11:00:31;;;;;;;0.00;0.00;;;;;;;29.38;30.57;98936.66;5053680;28;20040;-75
2022/05/17 11:03:21;;;;;;;0.30;0.30;;;;;;;29.33;31.03;98939.88;5053479;28;20021;-76
2022/05/17 11:06:05;;;;;;;0.25;0.10;;;;;;;29.27;30.60;98941.47;5053198;28;20372;-75
2022/05/17 11:08:45;;;;;;;0.00;0.00;;;;;;;29.07;30.38;98923.50;5053505;28;20032;-75
2022/05/17 11:11:20;;;;;;;0.00;0.00;;;;;;;29.03;30.87;98927.47;5052782;28;20471;-75
2022/05/17 11:13:54;;;;;;;0.00;0.00;;;;;;;28.96;30.42;98924.78;5053286;28;20495;-75
2022/05/17 11:16:36;;;;;;;0.10;0.10;;;;;;;28.91;31.49;98921.25;5053121;28;20032;-75
2022/05/17 11:19:09;;;;;;;0.17;0.17;;;;;;;28.89;30.64;98928.34;5053190;28;20059;-75
2022/05/17 11:21:49;;;;;;;0.00;0.00;;;;;;;28.83;30.57;98906.00;5053366;28;20082;-75
2022/05/17 11:24:43;;;;;;;1.55;1.13;;;;;;;28.90;30.98;98918.91;5053331;28;20021;-75
2022/05/17 11:27:23;;;;;;;0.60;0.20;;;;;;;28.99;31.58;98911.00;5053312;28;20553;-75
2022/05/17 11:30:08;;;;;;;0.35;0.35;;;;;;;29.06;31.21;98905.44;5053300;28;20566;-75
2022/05/17 11:32:37;;;;;;;0.10;0.10;;;;;;;29.17;31.17;98904.56;5053288;28;20021;-77
2022/05/17 11:35:31;;;;;;;0.10;0.10;;;;;;;29.32;31.24;98899.72;5052902;28;20025;-77
2022/05/17 11:37:59;;;;;;;0.00;0.00;;;;;;;29.39;30.66;98892.22;5052810;28;20029;-76
2022/05/17 11:40:43;;;;;;;0.00;0.00;;;;;;;29.45;31.35;98889.00;5053259;28;20029;-76
2022/05/17 11:45:55;;;;;;;0.05;0.05;;;;;;;29.60;30.76;98887.69;5052701;28;20150;-77
2022/05/17 11:48:23;;;;;;;0.10;0.10;;;;;;;29.69;31.16;98879.69;5052904;28;20029;-76
2022/05/17 11:50:52;;;;;;;0.10;0.10;;;;;;;29.75;32.20;98871.78;5052547;28;20029;-76
2022/05/17 11:53:23;;;;;;;0.00;0.00;;;;;;;29.83;32.01;98869.72;5053093;28;20032;-76
2022/05/17 11:56:24;;;;;;;0.00;0.00;;;;;;;29.96;31.44;98859.75;5051298;28;20519;-76
2022/05/17 11:58:57;;;;;;;0.00;0.00;;;;;;;29.97;30.71;98868.81;5036076;28;20060;-76